Time;durP1;ratioP1;P1;durP2;ratioP2;P2;SDS_P1;SDS_P2;PMS_P1;PMS_P2;Temp;Humidity;BMP_temperature;BMP_pressure;BME280_temperature;BME280_humidity;BME280_pressure;Samples;Min_cycle;Max_cycle;Signal;HPM_P1;HPM_P2
2022/06/12 00:00:44;;;;;;;6.50;5.80;;;20.60;99.90;;;;;;5072176;28;20506;-39
2022/06/12 00:03:14;;;;;;;8.50;5.77;;;20.60;99.90;;;;;;5073717;28;20435;-34
2022/06/12 00:05:46;;;;;;;7.90;5.80;;;20.50;99.90;;;;;;5073533;28;20447;-37
2022/06/12 00:08:13;;;;;;;7.23;5.00;;;20.50;99.90;;;;;;5073661;28;20426;-37
2022/06/12 00:10:42;;;;;;;7.73;5.97;;;20.50;99.90;;;;;;5067255;28;20492;-38
2022/06/12 00:13:12;;;;;;;6.80;5.70;;;20.50;99.90;;;;;;5067752;28;20453;-35
2022/06/12 00:15:40;;;;;;;7.73;5.40;;;20.50;99.90;;;;;;5073767;28;20470;-37
2022/06/12 00:18:09;;;;;;;7.53;5.70;;;20.50;99.90;;;;;;5074487;28;20461;-35
2022/06/12 00:20:35;;;;;;;6.40;5.80;;;20.40;99.90;;;;;;5074009;28;20443;-32
2022/06/12 00:23:07;;;;;;;6.50;5.60;;;20.40;99.90;;;;;;5073948;28;20847;-34
2022/06/12 00:25:34;;;;;;;5.97;5.10;;;20.40;99.90;;;;;;5063439;28;20730;-38
2022/06/12 00:28:01;;;;;;;7.33;5.40;;;20.30;99.90;;;;;;5075763;28;20467;-42
2022/06/12 00:30:28;;;;;;;8.30;5.50;;;20.30;99.90;;;;;;5078209;28;20463;-40
2022/06/12 00:32:56;;;;;;;9.77;5.93;;;20.30;99.90;;;;;;5063229;28;20503;-38
2022/06/12 00:35:27;;;;;;;8.07;6.73;;;20.20;99.90;;;;;;5077383;28;20573;-38
2022/06/12 00:37:54;;;;;;;9.60;5.90;;;20.20;99.90;;;;;;5078491;28;20519;-39
2022/06/12 00:40:22;;;;;;;6.63;5.70;;;20.20;99.90;;;;;;5061537;28;20462;-37
2022/06/12 00:42:58;;;;;;;10.20;5.40;;;20.20;99.90;;;;;;5078315;28;20481;-37
2022/06/12 00:45:42;;;;;;;8.80;6.50;;;20.20;99.90;;;;;;5078773;28;20423;-36
2022/06/12 00:48:11;;;;;;;7.20;6.10;;;20.10;99.90;;;;;;5078054;28;20423;-36
2022/06/12 00:50:43;;;;;;;7.10;5.73;;;20.10;99.90;;;;;;5062217;28;20904;-37
2022/06/12 00:53:14;;;;;;;12.03;5.70;;;20.10;99.90;;;;;;5077881;28;20435;-39
2022/06/12 00:55:46;;;;;;;8.50;6.77;;;20.10;99.90;;;;;;5077539;28;20483;-34
2022/06/12 00:58:18;;;;;;;9.30;5.93;;;20.10;99.90;;;;;;5077127;28;20423;-39
2022/06/12 01:00:47;;;;;;;11.43;5.90;;;20.10;99.90;;;;;;5075915;28;20499;-38
2022/06/12 01:03:15;;;;;;;8.43;6.17;;;20.10;99.90;;;;;;5075817;28;20458;-40
2022/06/12 01:08:30;;;;;;;11.43;6.10;;;20.00;99.90;;;;;;5066941;28;20445;-35
2022/06/12 01:11:01;;;;;;;6.57;5.77;;;20.00;99.90;;;;;;5077037;28;20459;-36
2022/06/12 01:13:31;;;;;;;7.00;6.30;;;20.00;99.90;;;;;;5077346;28;20497;-37
2022/06/12 01:16:01;;;;;;;9.90;6.70;;;20.00;99.90;;;;;;5076588;28;20523;-35
2022/06/12 01:18:32;;;;;;;9.33;6.60;;;19.90;99.90;;;;;;5077085;28;20466;-37
2022/06/12 01:21:12;;;;;;;9.00;5.97;;;19.90;99.90;;;;;;5076987;28;20446;-36
2022/06/12 01:24:10;;;;;;;6.70;6.10;;;19.90;99.90;;;;;;5077265;28;20431;-37
2022/06/12 01:27:01;;;;;;;11.47;7.20;;;19.90;99.90;;;;;;5061419;28;20546;-38
2022/06/12 01:29:35;;;;;;;9.00;6.53;;;19.90;99.90;;;;;;5076791;28;20506;-37
2022/06/12 01:32:08;;;;;;;10.00;5.70;;;19.90;99.90;;;;;;5076637;28;20535;-38
2022/06/12 01:34:40;;;;;;;7.43;5.33;;;19.90;99.90;;;;;;5077447;28;20448;-37
2022/06/12 01:37:24;;;;;;;8.90;6.77;;;19.80;99.90;;;;;;5077358;28;20427;-36
2022/06/12 01:40:00;;;;;;;7.27;5.93;;;19.80;99.90;;;;;;5077188;28;20455;-35
2022/06/12 01:42:36;;;;;;;7.03;6.03;;;19.70;99.90;;;;;;5077034;28;20491;-40
2022/06/12 01:45:16;;;;;;;8.97;6.77;;;19.70;99.90;;;;;;5076642;28;20433;-37
2022/06/12 01:47:52;;;;;;;8.67;5.77;;;19.70;99.90;;;;;;5076647;28;20431;-36
2022/06/12 01:50:25;;;;;;;6.60;6.00;;;19.70;99.90;;;;;;5077290;28;20523;-36
2022/06/12 01:53:06;;;;;;;7.53;6.37;;;19.70;99.90;;;;;;5077163;28;20442;-34
2022/06/12 01:55:41;;;;;;;6.93;6.23;;;19.70;99.90;;;;;;5076569;28;20515;-37
2022/06/12 01:58:13;;;;;;;7.00;6.30;;;19.70;99.90;;;;;;5076255;28;20491;-37
2022/06/12 02:00:52;;;;;;;12.57;7.10;;;19.70;99.90;;;;;;5062531;28;20415;-38
2022/06/12 02:03:28;;;;;;;7.70;6.07;;;19.60;99.90;;;;;;5076322;28;20477;-35
2022/06/12 02:06:00;;;;;;;8.23;7.07;;;19.60;99.90;;;;;;5076628;28;20450;-35
2022/06/12 02:08:33;;;;;;;7.33;6.63;;;19.60;99.90;;;;;;5075395;28;20457;-35
2022/06/12 02:13:11;;;;;;;7.80;7.00;;;19.60;99.90;;;;;;5061309;28;20460;-35
2022/06/12 02:13:55;;;;;;;9.07;6.57;;;19.50;99.90;;;;;;5064011;28;20450;-36
2022/06/12 02:16:28;;;;;;;8.03;7.23;;;19.50;99.90;;;;;;5061242;28;20485;-35
2022/06/12 02:18:59;;;;;;;8.60;7.40;;;19.50;99.90;;;;;;5076311;28;20423;-36
2022/06/12 02:21:29;;;;;;;10.40;7.13;;;19.50;99.90;;;;;;5076679;28;20807;-37
2022/06/12 02:24:01;;;;;;;8.20;7.37;;;19.60;99.90;;;;;;5076944;28;20438;-36
2022/06/12 02:26:34;;;;;;;9.60;7.10;;;19.60;99.90;;;;;;5076301;28;20537;-36
2022/06/12 02:29:06;;;;;;;8.73;6.60;;;19.60;99.90;;;;;;5076270;28;20426;-37
2022/06/12 02:31:41;;;;;;;7.50;6.80;;;19.50;99.90;;;;;;5076807;28;20491;-33
2022/06/12 02:34:13;;;;;;;12.10;7.43;;;19.50;99.90;;;;;;5076017;28;20477;-35
2022/06/12 02:36:49;;;;;;;11.03;7.10;;;19.50;99.90;;;;;;5076021;28;20459;-35
2022/06/12 02:39:20;;;;;;;7.87;6.10;;;19.50;99.90;;;;;;5076056;28;20471;-35
2022/06/12 02:41:52;;;;;;;7.00;6.40;;;19.40;99.90;;;;;;5076262;28;20471;-37
2022/06/12 02:44:25;;;;;;;7.37;6.60;;;19.40;99.90;;;;;;5075956;28;20532;-35
2022/06/12 02:47:00;;;;;;;8.23;7.37;;;19.40;99.90;;;;;;5076108;28;20451;-35
2022/06/12 02:49:27;;;;;;;7.97;7.10;;;19.40;99.90;;;;;;5076112;28;20475;-36
2022/06/12 02:52:02;;;;;;;7.30;6.60;;;19.40;99.90;;;;;;5075416;28;20439;-36
2022/06/12 02:54:33;;;;;;;7.70;6.17;;;19.40;99.90;;;;;;5075866;28;20427;-35
2022/06/12 02:57:15;;;;;;;8.33;6.60;;;19.40;99.90;;;;;;5075783;28;20578;-35
2022/06/12 02:59:52;;;;;;;8.17;7.10;;;19.50;99.90;;;;;;5075862;28;20442;-37
2022/06/12 03:02:27;;;;;;;8.70;6.73;;;19.50;99.90;;;;;;5075640;28;20471;-43
2022/06/12 03:04:58;;;;;;;11.03;7.63;;;19.50;99.90;;;;;;5075700;28;20459;-35
2022/06/12 03:07:27;;;;;;;10.83;7.53;;;19.50;99.90;;;;;;5075700;28;20417;-36
2022/06/12 03:09:55;;;;;;;10.83;7.13;;;19.50;99.90;;;;;;5075700;28;20467;-33
2022/06/12 03:12:22;;;;;;;9.13;7.80;;;19.60;99.90;;;;;;5075195;28;20483;-35
2022/06/12 03:14:52;;;;;;;7.47;6.77;;;19.60;99.90;;;;;;5075072;28;20494;-35
2022/06/12 03:17:21;;;;;;;10.20;8.30;;;19.50;99.90;;;;;;5074817;28;20482;-35
2022/06/12 03:19:51;;;;;;;8.83;7.60;;;19.50;99.90;;;;;;5073730;28;20463;-37
2022/06/12 03:22:28;;;;;;;8.07;6.50;;;19.50;99.90;;;;;;5074107;28;20453;-36
2022/06/12 03:25:06;;;;;;;7.77;7.00;;;19.40;99.90;;;;;;5074288;28;20451;-38
2022/06/12 03:27:54;;;;;;;7.43;6.73;;;19.40;99.90;;;;;;5060624;28;20455;-35
2022/06/12 03:30:33;;;;;;;8.10;6.70;;;19.30;99.90;;;;;;5074819;28;20434;-37
2022/06/12 03:33:12;;;;;;;8.07;7.13;;;19.30;99.90;;;;;;5074894;28;20455;-35
2022/06/12 03:35:54;;;;;;;6.70;6.10;;;19.30;99.90;;;;;;5074589;28;20479;-33
2022/06/12 03:38:27;;;;;;;8.00;7.27;;;19.30;99.90;;;;;;5074600;28;20423;-36
2022/06/12 03:41:02;;;;;;;7.80;7.10;;;19.20;99.90;;;;;;5075187;28;20446;-37
2022/06/12 03:43:37;;;;;;;10.40;7.80;;;19.30;99.90;;;;;;5071715;28;20449;-37
2022/06/12 03:46:17;;;;;;;10.30;6.60;;;19.30;99.90;;;;;;5063490;28;20471;-35
2022/06/12 03:48:53;;;;;;;8.30;6.77;;;19.30;99.90;;;;;;5074753;28;20438;-37
2022/06/12 03:51:25;;;;;;;9.37;7.83;;;19.30;99.90;;;;;;5074950;28;20492;-36
2022/06/12 03:53:58;;;;;;;10.27;7.30;;;19.30;99.90;;;;;;5075138;28;20462;-37
2022/06/12 03:59:24;;;;;;;7.83;6.73;;;19.30;99.90;;;;;;5075342;28;20465;-37
2022/06/12 04:01:54;;;;;;;12.00;6.93;;;19.40;99.90;;;;;;5074271;28;20531;-35
2022/06/12 04:04:25;;;;;;;10.13;7.70;;;19.40;99.90;;;;;;5074814;28;20471;-37
2022/06/12 04:06:55;;;;;;;8.63;7.70;;;19.40;99.90;;;;;;5074766;28;20470;-34
2022/06/12 04:09:26;;;;;;;9.70;7.90;;;19.40;99.90;;;;;;5074328;28;20466;-34
2022/06/12 04:11:55;;;;;;;8.00;7.10;;;19.40;99.90;;;;;;5074722;28;20506;-35
2022/06/12 04:14:27;;;;;;;7.73;6.97;;;19.30;99.90;;;;;;5074293;28;20432;-36
2022/06/12 04:16:59;;;;;;;8.27;7.43;;;19.30;99.90;;;;;;5074388;28;20495;-40
2022/06/12 04:19:30;;;;;;;8.87;7.90;;;19.30;99.90;;;;;;5073609;28;20447;-34
2022/06/12 04:22:05;;;;;;;8.27;6.97;;;19.30;99.90;;;;;;5072462;28;20511;-37
2022/06/12 04:24:39;;;;;;;7.50;6.80;;;19.30;99.90;;;;;;5071320;28;20454;-37
2022/06/12 04:27:13;;;;;;;8.33;7.40;;;19.40;99.90;;;;;;5072538;28;20542;-38
2022/06/12 04:29:51;;;;;;;7.80;7.10;;;19.40;99.90;;;;;;5071815;28;20419;-37
2022/06/12 04:32:19;;;;;;;10.90;6.77;;;19.50;99.90;;;;;;5073159;28;20471;-39
2022/06/12 04:34:47;;;;;;;7.90;7.20;;;19.60;99.90;;;;;;5073843;28;20477;-35
2022/06/12 04:37:17;;;;;;;7.37;6.67;;;19.70;99.90;;;;;;5074497;28;20478;-35
2022/06/12 04:39:45;;;;;;;9.37;7.37;;;19.70;99.90;;;;;;5074258;28;20463;-35
2022/06/12 04:42:13;;;;;;;9.47;7.00;;;19.80;99.90;;;;;;5074286;28;20468;-37
2022/06/12 04:44:41;;;;;;;9.00;7.50;;;19.80;99.90;;;;;;5074678;28;20495;-46
2022/06/12 04:47:11;;;;;;;9.97;7.40;;;19.70;99.90;;;;;;5074556;28;20466;-38
2022/06/12 04:49:38;;;;;;;11.27;6.93;;;19.60;99.90;;;;;;5073503;28;20474;-34
2022/06/12 04:52:12;;;;;;;9.87;6.30;;;19.60;99.90;;;;;;5073612;28;20467;-33
2022/06/12 04:54:40;;;;;;;7.93;7.20;;;19.60;99.90;;;;;;5073690;28;20498;-35
2022/06/12 04:57:14;;;;;;;12.90;8.10;;;19.60;99.90;;;;;;5073373;28;20493;-42
2022/06/12 04:59:41;;;;;;;12.63;9.33;;;19.60;99.90;;;;;;5073174;28;20458;-47
2022/06/12 05:02:08;;;;;;;8.93;8.03;;;19.60;99.90;;;;;;5073286;28;20443;-37
2022/06/12 05:04:36;;;;;;;11.60;8.53;;;19.60;99.90;;;;;;5071479;22;20491;-36
2022/06/12 05:07:04;;;;;;;11.10;8.17;;;19.60;99.90;;;;;;5034667;28;20437;-33
2022/06/12 05:09:39;;;;;;;9.83;8.77;;;19.60;99.90;;;;;;5034254;28;20509;-36
2022/06/12 05:12:08;;;;;;;9.80;8.80;;;19.60;99.90;;;;;;5034329;28;20924;-37
2022/06/12 05:14:35;;;;;;;12.27;7.90;;;19.60;99.90;;;;;;5036966;28;20447;-34
2022/06/12 05:17:04;;;;;;;9.37;8.33;;;19.70;99.90;;;;;;5037975;28;20560;-34
2022/06/12 05:19:34;;;;;;;10.20;8.40;;;19.70;99.90;;;;;;5038211;28;20504;-35
2022/06/12 05:22:03;;;;;;;10.60;9.50;;;19.70;99.90;;;;;;5035869;28;20448;-41
2022/06/12 05:24:32;;;;;;;10.83;8.70;;;19.70;99.90;;;;;;5024109;28;20417;-36
2022/06/12 05:26:59;;;;;;;9.63;8.73;;;19.70;99.90;;;;;;5037620;28;20468;-37
2022/06/12 05:29:29;;;;;;;9.90;8.90;;;19.80;99.90;;;;;;5037987;28;20476;-36
2022/06/12 05:31:56;;;;;;;8.63;7.73;;;19.90;99.90;;;;;;5037266;28;20590;-38
2022/06/12 05:34:25;;;;;;;16.00;8.97;;;20.00;99.90;;;;;;5023063;28;20535;-38
2022/06/12 05:36:52;;;;;;;10.10;9.00;;;20.10;99.90;;;;;;5036688;28;20511;-37
2022/06/12 05:39:20;;;;;;;9.67;8.70;;;20.20;99.90;;;;;;5028916;28;20449;-37
2022/06/12 05:41:49;;;;;;;8.80;7.90;;;20.30;99.90;;;;;;5036903;28;20508;-37
2022/06/12 05:44:17;;;;;;;11.53;8.50;;;20.40;99.90;;;;;;5036438;28;20524;-37
2022/06/12 05:46:44;;;;;;;10.20;9.20;;;20.50;99.90;;;;;;5030584;28;20556;-39
2022/06/12 05:49:12;;;;;;;10.93;8.23;;;20.60;99.90;;;;;;5027395;28;20483;-41
2022/06/12 05:51:42;;;;;;;9.33;8.43;;;20.60;99.90;;;;;;5037320;28;20508;-37
2022/06/12 05:54:10;;;;;;;13.00;9.20;;;20.80;99.90;;;;;;5037534;28;20492;-36
2022/06/12 05:56:37;;;;;;;8.97;8.07;;;20.90;99.90;;;;;;5037320;28;20472;-36
2022/06/12 05:59:06;;;;;;;11.30;9.10;;;20.90;99.90;;;;;;5036797;28;20541;-40
2022/06/12 06:01:33;;;;;;;9.63;8.60;;;21.00;99.90;;;;;;5025394;28;20557;-38
2022/06/12 06:04:00;;;;;;;9.00;7.93;;;21.00;99.90;;;;;;5032742;28;20480;-39
2022/06/12 06:06:30;;;;;;;10.77;7.90;;;21.10;99.90;;;;;;5036667;28;20517;-38
2022/06/12 06:08:57;;;;;;;10.10;9.13;;;21.10;99.90;;;;;;5036384;28;20448;-34
2022/06/12 06:11:25;;;;;;;10.17;8.90;;;21.20;99.90;;;;;;5036620;28;20453;-36
2022/06/12 06:13:52;;;;;;;9.93;8.80;;;21.30;99.90;;;;;;5036369;28;20481;-39
2022/06/12 06:16:20;;;;;;;10.30;8.50;;;21.30;99.90;;;;;;5028186;28;20477;-39
2022/06/12 06:18:47;;;;;;;10.13;9.00;;;21.50;99.90;;;;;;5036331;28;20453;-39
2022/06/12 06:21:15;;;;;;;13.00;9.27;;;21.70;99.90;;;;;;5031292;28;20468;-40
2022/06/12 06:23:43;;;;;;;11.10;9.50;;;21.70;99.90;;;;;;5025798;28;20437;-36
2022/06/12 06:26:11;;;;;;;11.43;8.47;;;21.80;99.90;;;;;;5035569;28;20470;-41
2022/06/12 06:28:39;;;;;;;9.13;7.80;;;21.80;99.90;;;;;;5036056;28;20441;-47
2022/06/12 06:31:07;;;;;;;11.30;8.77;;;21.70;99.90;;;;;;5032420;28;20482;-38
2022/06/12 06:33:36;;;;;;;9.23;8.33;;;21.70;99.90;;;;;;5028978;28;20523;-39
2022/06/12 06:36:03;;;;;;;10.87;8.27;;;21.80;99.90;;;;;;5010750;28;20477;-36
2022/06/12 06:38:34;;;;;;;12.80;8.83;;;21.90;99.90;;;;;;5010971;28;20484;-40
2022/06/12 06:41:01;;;;;;;9.63;8.30;;;22.10;99.90;;;;;;5008145;28;20476;-41
2022/06/12 06:43:28;;;;;;;8.90;7.20;;;22.20;99.90;;;;;;5004087;28;20549;-36
2022/06/12 06:48:41;;;;;;;8.80;8.00;;;22.50;99.90;;;;;;5024071;28;20477;-38
2022/06/12 06:51:08;;;;;;;12.20;8.20;;;22.70;99.90;;;;;;5029523;28;20440;-40
2022/06/12 06:53:35;;;;;;;8.20;7.40;;;22.90;99.90;;;;;;5032326;28;20885;-38
2022/06/12 06:56:02;;;;;;;9.40;7.57;;;23.00;99.90;;;;;;5023069;28;20489;-39
2022/06/12 06:58:31;;;;;;;15.73;8.40;;;23.00;99.90;;;;;;5028260;28;20517;-39
2022/06/12 07:00:59;;;;;;;9.73;7.47;;;22.90;99.90;;;;;;5029332;28;20492;-38
2022/06/12 07:03:32;;;;;;;7.97;7.17;;;22.90;99.90;;;;;;5029512;28;20479;-41
2022/06/12 07:06:02;;;;;;;8.43;7.60;;;22.80;99.90;;;;;;5028436;28;20487;-38
2022/06/12 07:08:29;;;;;;;8.23;7.37;;;22.80;99.90;;;;;;5026102;28;20529;-37
2022/06/12 07:10:57;;;;;;;7.40;6.30;;;22.90;99.90;;;;;;5020691;28;20463;-37
2022/06/12 07:13:25;;;;;;;8.10;6.97;;;23.10;99.90;;;;;;5029609;28;20475;-38
2022/06/12 07:15:51;;;;;;;7.53;6.50;;;23.30;99.90;;;;;;5021906;28;20488;-36
2022/06/12 07:18:19;;;;;;;12.23;7.50;;;23.30;99.90;;;;;;5031776;28;20519;-38
2022/06/12 07:20:53;;;;;;;8.50;7.53;;;23.30;99.90;;;;;;5027428;28;20425;-37
2022/06/12 07:23:23;;;;;;;7.80;6.60;;;23.20;99.90;;;;;;5029731;28;20524;-39
2022/06/12 07:25:52;;;;;;;8.13;6.00;;;23.20;99.90;;;;;;5030242;28;20457;-40
2022/06/12 07:28:20;;;;;;;7.73;5.90;;;23.10;99.90;;;;;;5029383;28;20922;-34
2022/06/12 07:30:47;;;;;;;6.27;5.67;;;23.10;99.90;;;;;;5031770;28;20487;-37
2022/06/12 07:33:14;;;;;;;9.27;6.43;;;23.00;99.90;;;;;;5031067;28;20461;-39
2022/06/12 07:35:42;;;;;;;6.10;5.40;;;22.90;99.90;;;;;;5032273;28;20480;-37
2022/06/12 07:38:09;;;;;;;7.83;6.23;;;23.00;99.90;;;;;;5031525;28;20484;-40
2022/06/12 07:40:40;;;;;;;5.03;4.53;;;22.90;99.90;;;;;;5028614;28;20480;-37
2022/06/12 07:43:08;;;;;;;6.30;4.73;;;22.90;99.90;;;;;;5027395;28;20461;-38
2022/06/12 07:45:35;;;;;;;5.17;4.70;;;22.90;99.90;;;;;;5022636;28;20448;-38
2022/06/12 07:48:02;;;;;;;4.60;4.20;;;22.80;99.90;;;;;;5021876;28;20480;-39
2022/06/12 07:50:29;;;;;;;5.10;4.63;;;22.90;99.90;;;;;;5023435;28;20479;-39
2022/06/12 07:52:58;;;;;;;8.37;4.60;;;22.90;99.90;;;;;;5022458;28;20542;-37
2022/06/12 07:55:25;;;;;;;6.90;5.20;;;22.90;99.90;;;;;;5026759;28;20505;-39
2022/06/12 07:57:56;;;;;;;5.60;4.07;;;22.90;99.90;;;;;;5019477;28;20491;-38
2022/06/12 08:00:24;;;;;;;7.87;5.13;;;23.00;99.90;;;;;;5027930;28;20429;-38
2022/06/12 08:02:51;;;;;;;7.40;5.97;;;23.00;99.90;;;;;;5022990;28;20548;-41
2022/06/12 08:05:20;;;;;;;8.03;4.97;;;23.10;99.90;;;;;;5023296;28;20460;-39
2022/06/12 08:07:47;;;;;;;6.10;5.50;;;23.20;99.90;;;;;;5025729;28;20456;-38
2022/06/12 08:10:14;;;;;;;11.93;4.67;;;23.40;99.90;;;;;;5020816;28;20475;-36
2022/06/12 08:12:43;;;;;;;4.47;4.07;;;23.60;99.90;;;;;;5027975;28;20508;-39
2022/06/12 08:15:16;;;;;;;5.00;4.10;;;24.00;99.90;;;;;;5033712;28;20504;-39
2022/06/12 08:17:43;;;;;;;6.43;4.17;;;24.40;99.90;;;;;;5033451;28;20453;-38
2022/06/12 08:20:28;;;;;;;7.20;4.00;;;24.50;99.90;;;;;;5033213;28;20479;-37
2022/06/12 08:23:00;;;;;;;6.03;3.60;;;24.60;99.90;;;;;;5033821;28;20421;-38
2022/06/12 08:25:29;;;;;;;5.30;3.23;;;24.90;99.90;;;;;;5032726;28;20473;-39
2022/06/12 08:27:56;;;;;;;4.00;3.60;;;25.20;99.90;;;;;;5033608;28;20413;-38
2022/06/12 08:30:25;;;;;;;4.23;3.20;;;25.40;99.90;;;;;;5033296;28;20472;-38
2022/06/12 08:32:53;;;;;;;3.77;3.40;;;25.60;99.90;;;;;;5033920;28;20460;-39
2022/06/12 08:35:27;;;;;;;4.70;3.50;;;26.50;99.90;;;;;;5033673;28;20470;-41
2022/06/12 08:37:54;;;;;;;5.90;3.93;;;27.20;99.90;;;;;;5033048;28;20497;-40
2022/06/12 08:40:28;;;;;;;4.30;3.90;;;27.50;99.90;;;;;;5033517;28;20524;-39
2022/06/12 08:43:03;;;;;;;13.23;10.27;;;27.80;99.90;;;;;;5033505;28;20486;-42
2022/06/12 08:45:39;;;;;;;4.57;4.10;;;28.00;99.90;;;;;;5033057;28;20433;-37
2022/06/12 08:48:11;;;;;;;5.73;5.20;;;27.90;99.90;;;;;;5023442;28;20445;-38
2022/06/12 08:50:43;;;;;;;4.23;3.83;;;28.00;99.90;;;;;;5025159;28;20437;-38
2022/06/12 08:53:16;;;;;;;3.73;3.40;;;28.20;99.90;;;;;;5032023;28;20456;-38
2022/06/12 08:55:49;;;;;;;3.97;3.00;;;28.60;99.90;;;;;;5029640;28;20536;-39
2022/06/12 08:58:20;;;;;;;6.57;2.77;;;28.90;97.30;;;;;;5026217;28;20495;-39
2022/06/12 09:00:49;;;;;;;5.50;3.93;;;28.80;95.80;;;;;;5036168;28;20532;-38
2022/06/12 09:03:18;;;;;;;5.50;3.50;;;28.50;96.10;;;;;;5035601;28;20480;-39
2022/06/12 09:05:52;;;;;;;5.63;3.40;;;28.20;96.10;;;;;;5035522;28;20476;-38
2022/06/12 09:08:29;;;;;;;5.13;3.03;;;27.80;96.40;;;;;;5035963;28;20848;-37
2022/06/12 09:11:03;;;;;;;4.10;3.20;;;27.70;96.70;;;;;;5036299;28;20452;-39
2022/06/12 09:13:32;;;;;;;5.00;3.10;;;27.80;95.80;;;;;;5036716;28;20541;-38
2022/06/12 09:16:05;;;;;;;7.30;3.00;;;27.90;95.90;;;;;;5036442;28;20508;-37
2022/06/12 09:18:51;;;;;;;4.10;3.23;;;28.00;95.50;;;;;;5036214;28;20488;-38
2022/06/12 09:21:24;;;;;;;6.67;3.00;;;28.30;94.50;;;;;;5036197;28;20433;-40
2022/06/12 09:24:03;;;;;;;4.10;2.77;;;28.50;93.70;;;;;;5035935;28;20471;-42
2022/06/12 09:26:40;;;;;;;3.83;2.47;;;28.90;92.60;;;;;;5030704;28;20425;-39
2022/06/12 09:29:19;;;;;;;4.43;2.47;;;28.90;92.00;;;;;;5030710;28;20532;-39
2022/06/12 09:31:54;;;;;;;5.67;3.20;;;28.70;92.10;;;;;;5030363;28;20455;-41
2022/06/12 09:34:31;;;;;;;2.77;2.57;;;28.40;90.70;;;;;;5018801;28;20429;-38
2022/06/12 09:40:03;;;;;;;3.60;3.07;;;27.60;91.80;;;;;;5036227;28;20489;-41
2022/06/12 09:42:46;;;;;;;5.17;3.97;;;27.30;93.00;;;;;;5036398;28;20425;-37
2022/06/12 09:45:24;;;;;;;5.47;3.20;;;27.20;93.10;;;;;;5037283;28;20456;-37
2022/06/12 09:48:01;;;;;;;8.47;3.10;;;27.60;93.90;;;;;;5036569;28;20425;-42
2022/06/12 09:50:41;;;;;;;5.73;4.13;;;28.10;91.70;;;;;;5036717;28;20479;-38
2022/06/12 09:53:31;;;;;;;9.07;3.90;;;28.40;92.30;;;;;;5036377;28;20433;-38
2022/06/12 09:56:05;;;;;;;6.50;3.30;;;28.50;90.40;;;;;;5036548;28;20449;-37
2022/06/12 09:58:39;;;;;;;5.03;2.60;;;28.50;87.60;;;;;;5027906;28;20473;-38
2022/06/12 10:01:14;;;;;;;6.17;2.70;;;28.20;86.90;;;;;;5029503;28;20430;-37
2022/06/12 10:03:48;;;;;;;3.60;2.50;;;28.10;88.40;;;;;;5035005;28;20480;-39
2022/06/12 10:06:23;;;;;;;4.70;2.90;;;27.90;87.30;;;;;;5037152;28;20481;-37
2022/06/12 10:08:56;;;;;;;3.47;2.87;;;27.80;88.40;;;;;;5036795;28;20468;-37
2022/06/12 10:11:26;;;;;;;3.03;2.30;;;28.10;87.20;;;;;;5036445;28;20429;-39
2022/06/12 10:13:58;;;;;;;7.07;3.23;;;28.00;88.20;;;;;;5036147;28;20488;-37
2022/06/12 10:16:29;;;;;;;4.23;2.67;;;27.90;88.10;;;;;;5035598;28;20497;-37
2022/06/12 10:19:02;;;;;;;2.87;2.60;;;28.00;89.00;;;;;;5036254;28;20473;-38
2022/06/12 10:21:34;;;;;;;6.00;3.90;;;28.30;89.50;;;;;;5036511;28;20513;-35
2022/06/12 10:24:02;;;;;;;5.90;3.47;;;28.60;88.60;;;;;;5036300;28;20456;-40
2022/06/12 10:26:33;;;;;;;5.40;3.33;;;28.60;87.40;;;;;;5036139;28;20473;-36
2022/06/12 10:29:04;;;;;;;3.43;2.60;;;28.30;85.40;;;;;;5035726;28;20450;-39
2022/06/12 10:31:34;;;;;;;6.67;3.10;;;27.80;85.20;;;;;;5033573;28;20471;-39
2022/06/12 10:34:15;;;;;;;5.20;2.90;;;27.50;86.70;;;;;;5035643;28;20448;-38
2022/06/12 10:36:49;;;;;;;4.50;2.97;;;27.30;87.10;;;;;;5034951;28;20483;-38
2022/06/12 10:39:20;;;;;;;5.30;2.70;;;27.30;89.80;;;;;;5035099;28;20972;-40
2022/06/12 10:41:51;;;;;;;3.50;2.47;;;27.60;87.90;;;;;;5035781;28;20472;-39
2022/06/12 10:44:31;;;;;;;2.90;2.70;;;27.90;86.10;;;;;;5035230;28;20520;-38
2022/06/12 10:47:20;;;;;;;5.27;3.47;;;27.90;88.10;;;;;;5035737;28;20465;-39
2022/06/12 10:49:49;;;;;;;20.70;16.10;;;28.40;87.20;;;;;;5035228;28;20492;-38
2022/06/12 10:52:20;;;;;;;4.60;2.90;;;28.60;88.70;;;;;;5035036;28;20437;-36
2022/06/12 10:54:49;;;;;;;6.03;3.00;;;28.60;86.70;;;;;;5034136;28;20484;-37
2022/06/12 10:57:34;;;;;;;7.00;2.90;;;28.00;86.30;;;;;;5035114;28;20512;-34
2022/06/12 11:00:05;;;;;;;10.80;3.10;;;27.60;86.80;;;;;;5033963;28;20418;-36
2022/06/12 11:02:53;;;;;;;2.53;2.30;;;27.40;85.80;;;;;;5036218;28;20453;-39
2022/06/12 11:06:14;;;;;;;3.10;2.50;;;27.30;85.60;;;;;;5034838;28;20445;-40
2022/06/12 11:09:16;;;;;;;5.03;2.33;;;27.40;81.30;;;;;;5030500;28;20950;-39
2022/06/12 11:12:00;;;;;;;3.90;2.70;;;27.20;82.80;;;;;;5033726;28;20427;-38
2022/06/12 11:14:41;;;;;;;3.73;3.00;;;27.40;82.70;;;;;;5034356;28;20421;-39
2022/06/12 11:17:20;;;;;;;5.33;2.93;;;27.50;82.10;;;;;;5034529;28;20485;-37
2022/06/12 11:20:01;;;;;;;4.77;2.40;;;27.50;81.60;;;;;;5034701;28;20429;-39
2022/06/12 11:22:45;;;;;;;5.00;2.67;;;27.20;79.90;;;;;;5034712;28;20497;-37
2022/06/12 11:25:31;;;;;;;5.10;2.43;;;27.10;80.40;;;;;;5034448;28;20532;-39
2022/06/12 11:28:12;;;;;;;6.30;3.00;;;26.90;81.30;;;;;;5033733;28;20418;-37
2022/06/12 11:30:47;;;;;;;9.33;5.00;;;26.90;80.80;;;;;;5034413;28;20452;-37
2022/06/12 11:33:33;;;;;;;5.63;4.00;;;26.90;80.80;;;;;;5034198;28;20444;-35
2022/06/12 11:36:09;;;;;;;3.50;2.50;;;26.80;82.30;;;;;;5033759;28;20465;-38
2022/06/12 11:39:08;;;;;;;5.17;3.37;;;26.60;82.10;;;;;;5034205;28;20492;-37
2022/06/12 11:41:49;;;;;;;5.70;2.70;;;26.60;83.30;;;;;;5034351;28;20432;-37
2022/06/12 11:44:34;;;;;;;5.50;2.83;;;26.50;83.80;;;;;;5034553;28;20496;-37
2022/06/12 11:47:12;;;;;;;3.47;2.50;;;26.40;83.30;;;;;;5035059;28;20437;-38
2022/06/12 11:49:50;;;;;;;4.70;2.73;;;26.40;84.50;;;;;;5034198;28;20458;-37
2022/06/12 11:52:35;;;;;;;8.07;2.70;;;26.40;84.50;;;;;;5033432;28;20494;-39
2022/06/12 11:55:23;;;;;;;5.63;2.77;;;26.30;84.50;;;;;;5034044;28;20480;-38
2022/06/12 11:58:11;;;;;;;3.30;2.77;;;26.30;84.80;;;;;;5033602;28;20834;-38
2022/06/12 12:00:48;;;;;;;4.43;2.43;;;26.30;83.20;;;;;;5018201;28;20507;-39
2022/06/12 12:03:49;;;;;;;6.77;3.70;;;26.60;84.70;;;;;;5032494;28;20465;-37
2022/06/12 12:06:38;;;;;;;9.60;2.73;;;26.80;81.70;;;;;;5033341;28;20450;-35
2022/06/12 12:09:22;;;;;;;6.37;2.77;;;26.60;81.90;;;;;;5033277;28;20494;-38
2022/06/12 12:11:55;;;;;;;6.10;3.03;;;26.60;83.30;;;;;;5033430;28;20483;-38
2022/06/12 12:14:26;;;;;;;6.23;2.70;;;26.80;82.00;;;;;;5034438;28;20532;-38
2022/06/12 12:16:58;;;;;;;5.27;2.80;;;26.80;80.40;;;;;;5034318;28;20537;-36
2022/06/12 12:19:30;;;;;;;6.13;2.73;;;26.60;79.80;;;;;;5033757;28;20461;-39
2022/06/12 12:22:00;;;;;;;3.83;2.20;;;26.50;80.80;;;;;;5033218;28;20536;-36
2022/06/12 12:24:30;;;;;;;4.33;2.80;;;26.50;80.50;;;;;;5036406;28;20445;-38
2022/06/12 12:27:02;;;;;;;5.20;2.90;;;26.60;79.60;;;;;;5036207;28;20475;-38
2022/06/12 12:29:34;;;;;;;9.07;2.30;;;26.70;79.40;;;;;;5037457;28;20429;-37
2022/06/12 12:32:04;;;;;;;3.10;2.80;;;26.80;78.50;;;;;;5037008;28;20430;-38
2022/06/12 12:34:32;;;;;;;3.87;2.87;;;26.70;76.90;;;;;;5036959;28;20483;-36
2022/06/12 12:42:32;;;;;;;6.33;3.43;;;26.60;77.10;;;;;;5036707;28;20433;-38
2022/06/12 12:45:12;;;;;;;5.60;3.07;;;26.60;79.00;;;;;;5037056;28;20524;-40
2022/06/12 12:47:39;;;;;;;4.10;2.87;;;26.80;80.30;;;;;;5021585;28;20488;-38
2022/06/12 12:50:10;;;;;;;4.93;3.20;;;27.00;79.60;;;;;;5035656;28;20460;-37
2022/06/12 12:52:50;;;;;;;4.83;2.80;;;27.10;76.80;;;;;;5037625;28;20441;-39
2022/06/12 12:55:23;;;;;;;3.47;3.00;;;27.20;78.40;;;;;;5037109;28;20463;-38
2022/06/12 12:57:52;;;;;;;10.80;3.70;;;27.40;77.80;;;;;;5035954;28;20437;-41
2022/06/12 13:00:26;;;;;;;5.93;3.63;;;27.30;75.40;;;;;;5035706;28;20509;-36
2022/06/12 13:02:57;;;;;;;4.50;3.00;;;27.30;75.10;;;;;;5037344;28;20494;-36
2022/06/12 13:05:26;;;;;;;3.70;3.07;;;27.40;74.50;;;;;;5037492;28;20464;-40
2022/06/12 13:08:09;;;;;;;5.60;3.33;;;27.70;75.40;;;;;;5036564;28;20511;-36
2022/06/12 13:10:48;;;;;;;3.33;3.03;;;27.80;74.60;;;;;;5036471;28;20452;-37
2022/06/12 13:13:44;;;;;;;4.87;2.90;;;27.90;69.00;;;;;;5037767;28;20494;-40
2022/06/12 13:16:20;;;;;;;3.43;2.80;;;27.70;69.90;;;;;;5035805;28;20506;-38
2022/06/12 13:19:08;;;;;;;6.87;2.60;;;27.70;71.50;;;;;;5037368;28;20468;-38
2022/06/12 13:21:44;;;;;;;5.47;2.90;;;27.80;72.20;;;;;;5021350;28;20429;-38
2022/06/12 13:24:26;;;;;;;7.03;3.30;;;28.00;70.90;;;;;;5025543;28;20492;-38
2022/06/12 13:26:53;;;;;;;4.13;2.30;;;28.20;69.80;;;;;;5026323;28;20465;-37
2022/06/12 13:29:23;;;;;;;4.50;2.67;;;28.30;67.90;;;;;;5026511;28;20499;-39
2022/06/12 13:31:58;;;;;;;5.83;2.90;;;28.20;65.30;;;;;;5036411;28;20449;-37